Latest Weather Observations for Mallacoota

IDV60801

Issued at 9:05 pm EST Saturday 23 August 2014 (issued every 30 minutes, with the page automatically refreshed every 10 minutes)

About weather observations | Map of weather stations | Latest weather observations for VIC | Other Formats
Station Details ID: 084084 Name: MALLACOOTA Lat: -37.60 Lon: 149.73 Height: 22.0 m
Data from the previous 72 hours. | See also: Recent months at Mallacoota
Date/Time
EST
Temp
°C
App
Temp
°C
Dew
Point
Rel
Hum
%
Delta-T
°C
Wind Press
QNH
hPa
Press
MSL
hPa
Rain
since 9 am
mm
Dir
 
Spd
km/h
Gust
km/h
Spd
kts
Gust
kts
23/09:00pm 13.6 11.0 10.6 82 1.6 NNE 15 22 8 12 1029.4 1029.5 0.0
23/08:30pm 13.5 11.3 10.7 83 1.5 NNE 13 19 7 10 1029.5 - 0.0
23/08:00pm 13.1 11.1 10.1 82 1.5 N 11 13 6 7 1029.4 - 0.0
23/07:30pm 13.6 10.9 10.4 81 1.7 NNE 15 20 8 11 1029.2 - 0.0
23/07:00pm 13.6 11.2 10.2 80 1.8 N 13 17 7 9 1029.3 - 0.0
23/06:30pm 13.8 11.4 10.2 79 1.9 N 13 20 7 11 1029.1 - 0.0
23/06:00pm 14.0 12.1 10.4 79 1.9 NNE 11 15 6 8 1029.0 1029.1 0.0
23/05:30pm 14.8 11.7 10.4 75 2.3 NNE 17 22 9 12 1028.8 - 0.0
23/05:00pm 15.6 12.6 10.6 72 2.6 NNE 17 24 9 13 1028.5 - 0.0
23/04:30pm 16.2 13.7 10.9 71 2.8 NE 15 28 8 15 1028.2 - 0.0
23/04:00pm 16.7 14.2 11.0 69 3.1 NNE 15 26 8 14 1028.3 - 0.0
23/03:30pm 16.8 12.7 10.2 65 3.5 NNE 22 32 12 17 1028.2 - 0.0
23/03:00pm 17.1 14.6 11.2 68 3.2 NE 15 26 8 14 1028.3 1028.4 0.0
23/02:30pm 17.8 15.3 10.9 64 3.7 NE 15 22 8 12 1028.4 - 0.0
23/02:00pm 17.4 13.9 10.3 63 3.8 NNE 19 24 10 13 1028.6 - 0.0
23/01:30pm 16.8 14.3 10.9 68 3.2 NNE 15 22 8 12 1028.9 - 0.0
23/01:00pm 17.0 14.0 10.6 66 3.4 NNE 17 24 9 13 1029.2 - 0.0
23/12:30pm 17.5 14.5 10.6 64 3.7 NNE 17 26 9 14 1029.6 - 0.0
23/12:00pm 17.2 14.2 10.8 66 3.4 NNE 17 24 9 13 1030.0 1030.1 0.0
23/11:30am 16.7 13.4 10.8 68 3.2 NNE 19 24 10 13 1030.6 - 0.0
23/11:00am 16.5 15.4 12.1 75 2.4 E 9 15 5 8 1031.0 - 0.0
23/10:30am 15.5 14.4 11.9 79 2.0 ENE 9 11 5 6 1031.3 - 0.0
23/10:00am 15.1 14.3 11.7 80 1.8 NE 7 11 4 6 1031.5 - 0.0
23/09:30am 14.9 13.9 12.2 84 1.5 NNE 9 13 5 7 1031.7 - 0.0
23/09:00am 13.1 11.9 11.7 91 0.7 NNW 9 13 5 7 1031.8 1031.9 0.0
23/08:30am 11.3 9.4 10.4 94 0.5 NW 11 15 6 8 1031.7 - 0.0
23/08:00am 10.6 9.3 9.8 95 0.4 NNW 7 9 4 5 1031.7 - 0.0
23/07:30am 9.4 7.0 8.6 95 0.4 NW 11 13 6 7 1031.5 - 0.0
23/07:00am 9.3 7.2 8.4 94 0.4 NW 9 13 5 7 1031.3 - 0.0
23/06:30am 9.5 7.5 8.6 94 0.4 NW 9 13 5 7 1030.8 - 0.0
23/06:00am 9.5 7.5 8.6 94 0.4 NNW 9 11 5 6 1030.7 1030.8 0.0
23/05:30am 9.9 7.6 9.0 94 0.4 NNW 11 15 6 8 1030.7 - 0.0
23/05:00am 9.5 7.1 8.6 94 0.4 NW 11 13 6 7 1030.5 - 0.0
23/04:30am 9.7 8.1 8.6 93 0.5 NW 7 11 4 6 1030.4 - 0.0
23/04:00am 9.7 7.7 8.6 93 0.5 NW 9 11 5 6 1030.4 - 0.0
23/03:30am 10.3 8.4 9.2 93 0.5 NNW 9 15 5 8 1030.4 - 0.0
23/03:00am 9.3 7.1 7.9 91 0.7 N 9 11 5 6 1030.5 1030.6 0.0
23/02:30am 10.1 8.2 8.9 92 0.6 N 9 11 5 6 1030.7 - 0.0
23/02:00am 10.7 9.2 9.3 91 0.7 NNW 7 11 4 6 1030.9 - 0.0
23/01:30am 10.5 9.0 9.1 91 0.7 N 7 9 4 5 1031.2 - 0.0
23/01:00am 11.2 9.4 9.6 90 0.8 N 9 13 5 7 1031.2 - 0.0
23/12:30am 10.9 9.0 9.2 89 0.8 N 9 15 5 8 1031.3 - 0.0
23/12:00am 11.7 9.3 10.1 90 0.8 N 13 19 7 10 1031.3 1031.4 0.0
 
Date/Time
EST
Temp
°C
App
Temp
°C
Dew
Point
Rel
Hum
%
Delta-T
°C
Wind Press
QNH
hPa
Press
MSL
hPa
Rain
since 9 am
mm
Dir
 
Spd
km/h
Gust
km/h
Spd
kts
Gust
kts
22/11:30pm 10.9 8.8 9.7 92 0.6 NNW 11 15 6 8 1031.5 - 0.0
22/11:00pm 10.5 8.2 9.1 91 0.7 NNW 11 13 6 7 1031.6 - 0.0
22/10:30pm 10.7 8.8 9.1 90 0.8 NW 9 13 5 7 1031.9 - 0.0
22/10:00pm 10.9 9.0 9.2 89 0.8 NNW 9 13 5 7 1032.0 - 0.0
22/09:30pm 10.9 9.0 9.2 89 0.8 NNW 9 13 5 7 1032.0 - 0.0
22/09:00pm 11.3 9.5 9.4 88 0.9 N 9 17 5 9 1032.0 1032.1 0.0
22/08:30pm 11.8 9.7 9.7 87 1.1 N 11 15 6 8 1031.8 - 0.0
22/08:00pm 11.9 9.4 9.6 86 1.2 NNE 13 17 7 9 1031.7 - 0.0
22/07:30pm 11.2 9.2 8.8 85 1.2 N 9 13 5 7 1031.7 - 0.0
22/07:00pm 11.8 9.9 9.0 83 1.4 N 9 13 5 7 1031.6 - 0.0
22/06:30pm 13.3 10.5 9.9 80 1.7 NNE 15 22 8 12 1031.3 - 0.0
22/06:00pm 13.7 11.3 9.9 78 1.9 NNE 13 17 7 9 1031.1 1031.2 0.0
22/05:30pm 14.0 11.0 9.4 74 2.4 NNE 15 20 8 11 1030.9 - 0.0
22/05:00pm 14.5 11.1 9.3 71 2.7 NNE 17 24 9 13 1030.6 - 0.0
22/04:30pm 15.0 11.7 9.6 70 2.8 NE 17 30 9 16 1030.5 - 0.0
22/04:00pm 15.4 11.9 8.9 65 3.3 NE 17 26 9 14 1030.4 - 0.0
22/03:30pm 15.3 10.2 9.2 67 3.1 ENE 26 35 14 19 1030.3 - 0.0
22/03:00pm 15.7 11.9 9.8 68 3.1 ENE 20 32 11 17 1030.3 1030.4 0.0
22/02:30pm 15.4 11.0 10.4 72 2.6 E 24 35 13 19 1030.5 - 0.0
22/02:00pm 15.5 11.4 10.1 70 2.8 ENE 22 32 12 17 1030.6 - 0.0
22/01:30pm 15.6 11.6 10.4 71 2.7 E 22 30 12 16 1030.9 - 0.0
22/01:00pm 15.5 11.7 9.8 69 3.0 E 20 28 11 15 1031.2 - 0.0
22/12:30pm 16.0 14.5 10.7 71 2.8 E 9 11 5 6 1031.8 - 0.0
22/12:00pm 15.7 13.9 10.7 72 2.6 E 11 15 6 8 1032.2 1032.3 0.0
22/11:30am 16.3 14.2 9.9 66 3.4 ENE 11 15 6 8 1032.6 - 0.0
22/11:00am 16.2 13.3 9.6 65 3.4 NNE 15 22 8 12 1032.9 - 0.0
22/10:30am 15.9 13.8 9.8 67 3.2 NE 11 15 6 8 1033.1 - 0.0
22/10:00am 15.2 13.5 10.0 71 2.7 NNW 9 15 5 8 1033.3 - 0.0
22/09:30am 13.8 11.8 10.2 79 1.9 NNW 11 15 6 8 1033.3 - 0.0
22/09:00am 12.4 10.5 10.5 88 1.0 NW 11 15 6 8 1033.4 1033.5 0.4
22/08:30am 10.7 8.1 9.5 92 0.6 NW 13 17 7 9 1033.2 - 0.4
22/08:00am 9.2 6.3 8.3 94 0.4 NW 13 17 7 9 1033.0 - 0.2
22/07:30am 7.9 4.8 7.1 95 0.4 NW 13 19 7 10 1032.8 - 0.2
22/07:00am 7.1 3.8 6.4 95 0.3 WNW 13 17 7 9 1032.4 - 0.2
22/06:30am 6.6 3.6 5.9 95 0.3 NW 11 15 6 8 1032.1 - 0.2
22/06:00am 6.3 2.8 5.4 94 0.4 WNW 13 15 7 8 1031.9 1032.0 0.2
22/05:30am 6.3 3.2 5.4 94 0.4 WNW 11 15 6 8 1031.8 - 0.2
22/05:00am 6.8 3.4 5.9 94 0.4 WNW 13 17 7 9 1031.8 - 0.2
22/04:30am 7.0 3.6 6.1 94 0.4 WNW 13 15 7 8 1031.7 - 0.2
22/04:00am 6.8 3.8 5.9 94 0.4 WNW 11 15 6 8 1031.5 - 0.2
22/03:30am 7.1 4.1 6.2 94 0.4 WNW 11 17 6 9 1031.4 - 0.2
22/03:00am 7.4 4.5 6.5 94 0.4 WNW 11 13 6 7 1031.3 1031.4 0.2
22/02:30am 7.8 4.6 6.9 94 0.4 NW 13 17 7 9 1031.4 - 0.2
22/02:00am 8.4 5.7 7.3 93 0.5 NW 11 13 6 7 1031.7 - 0.2
22/01:30am 8.4 7.0 7.3 93 0.5 NW 4 7 2 4 1032.0 - 0.2
22/01:00am 8.3 6.9 7.2 93 0.5 NNE 4 11 2 6 1032.2 - 0.2
22/12:30am 8.3 5.6 7.2 93 0.5 NW 11 15 6 8 1032.1 - 0.2
22/12:00am 8.5 5.8 7.4 93 0.5 WNW 11 13 6 7 1032.0 1032.1 0.2
 
Date/Time
EST
Temp
°C
App
Temp
°C
Dew
Point
Rel
Hum
%
Delta-T
°C
Wind Press
QNH
hPa
Press
MSL
hPa
Rain
since 9 am
mm
Dir
 
Spd
km/h
Gust
km/h
Spd
kts
Gust
kts
21/11:30pm 8.9 6.3 7.7 92 0.6 NW 11 15 6 8 1032.2 - 0.2
21/11:00pm 9.2 6.7 8.0 92 0.6 NW 11 13 6 7 1032.1 - 0.2
21/10:30pm 9.7 7.7 8.5 92 0.6 WNW 9 11 5 6 1032.2 - 0.2
21/10:00pm 10.2 8.3 9.0 92 0.6 NNW 9 11 5 6 1032.3 - 0.2
21/09:30pm 10.2 7.9 9.0 92 0.6 NW 11 15 6 8 1032.2 - 0.2
21/09:00pm 10.2 7.8 8.8 91 0.7 NW 11 13 6 7 1032.1 1032.2 0.2
21/08:30pm 9.9 7.9 8.5 91 0.7 NW 9 13 5 7 1032.0 - 0.2
21/08:00pm 9.8 8.0 8.1 89 0.8 WNW 7 9 4 5 1031.8 - 0.2
21/07:30pm 9.9 8.6 7.5 85 1.1 NW 4 7 2 4 1031.6 - 0.2
21/07:00pm 11.7 9.8 7.4 75 2.1 NE 7 15 4 8 1031.4 - 0.2
21/06:30pm 13.7 11.1 9.4 75 2.2 E 13 17 7 9 1031.1 - 0.2
21/06:00pm 13.9 11.0 9.7 76 2.1 E 15 20 8 11 1030.7 1030.8 0.2
21/05:30pm 13.7 11.3 9.9 78 2.0 E 13 19 7 10 1030.5 - 0.2
21/05:00pm 13.7 13.7 9.9 78 2.0 CALM 0 0 0 0 1030.2 - 0.2
21/04:30pm 14.4 13.8 10.4 77 2.1 SE 4 7 2 4 1030.1 - 0.2
21/04:00pm 14.5 13.4 10.5 77 2.1 S 7 11 4 6 1030.0 - 0.2
21/03:30pm 14.6 13.4 10.4 76 2.2 S 7 11 4 6 1029.8 - 0.2
21/03:00pm 14.9 13.3 10.1 73 2.5 S 9 15 5 8 1029.8 1029.9 0.2
21/02:30pm 14.6 12.1 9.8 73 2.5 S 13 17 7 9 1029.9 - 0.2
21/02:00pm 14.3 11.4 9.7 74 2.4 S 15 19 8 10 1030.0 - 0.2
21/01:30pm 14.5 11.6 9.7 73 2.5 S 15 19 8 10 1030.1 - 0.2
21/01:00pm 14.4 11.8 9.4 72 2.6 S 13 17 7 9 1030.2 - 0.2
21/12:30pm 14.2 11.6 9.4 73 2.5 S 13 17 7 9 1030.4 - 0.2
21/12:00pm 14.6 12.8 9.6 72 2.6 S 9 13 5 7 1030.8 1030.9 0.2
21/11:30am 14.2 12.9 9.8 75 2.3 SE 7 11 4 6 1031.1 - 0.0
21/11:00am 13.5 11.6 9.2 75 2.2 SE 9 11 5 6 1031.4 - 0.0
21/10:30am 13.7 12.2 9.0 73 2.4 NE 7 11 4 6 1031.5 - 0.0
21/10:00am 12.8 11.4 8.9 77 2.0 NW 6 7 3 4 1031.5 - 0.0
21/09:30am 11.2 9.1 8.2 82 1.5 WNW 9 13 5 7 1031.3 - 0.0
21/09:00am 10.1 7.6 8.2 88 0.9 NW 11 13 6 7 1031.3 1031.4 0.0
21/08:30am 9.3 6.7 7.9 91 0.7 W 11 15 6 8 1031.3 - 0.0
21/08:00am 8.8 6.1 7.4 91 0.7 WNW 11 13 6 7 1031.1 - 0.0
21/07:30am 7.8 4.5 6.3 90 0.7 NW 13 17 7 9 1030.8 - 0.0
21/07:00am 8.0 6.3 6.1 88 0.9 NNE 4 7 2 4 1030.6 - 0.0
21/06:30am 8.0 5.3 5.8 86 1.0 WNW 9 13 5 7 1030.0 - 0.0
21/06:00am 8.0 5.3 5.8 86 1.0 WNW 9 13 5 7 1029.7 1029.8 0.0
21/05:30am 7.9 5.2 5.7 86 1.0 NW 9 13 5 7 1029.5 - 0.0
21/05:00am 8.0 6.3 5.8 86 1.0 N 4 7 2 4 1029.4 - 0.0
21/04:30am 7.9 5.2 5.5 85 1.1 NW 9 13 5 7 1029.2 - 0.0
21/04:00am 8.2 5.1 5.7 84 1.1 WNW 11 15 6 8 1029.0 - 0.0
21/03:30am 8.4 5.3 5.7 83 1.2 NW 11 15 6 8 1028.7 - 0.0
21/03:00am 9.0 6.4 5.9 81 1.4 NW 9 15 5 8 1028.7 1028.8 0.0
21/02:30am 8.9 5.9 5.8 81 1.4 WNW 11 17 6 9 1028.7 - 0.0
21/02:00am 8.7 5.7 5.8 82 1.3 WNW 11 15 6 8 1028.7 - 0.0
21/01:30am 8.8 5.4 5.7 81 1.4 WNW 13 19 7 10 1028.7 - 0.0
21/01:00am 8.9 5.9 5.8 81 1.4 WNW 11 19 6 10 1028.8 - 0.0
21/12:30am 8.7 5.7 5.8 82 1.3 WNW 11 15 6 8 1029.0 - 0.0
21/12:00am 8.3 5.6 5.6 83 1.2 WNW 9 13 5 7 1029.0 1029.1 0.0
 
Date/Time
EST
Temp
°C
App
Temp
°C
Dew
Point
Rel
Hum
%
Delta-T
°C
Wind Press
QNH
hPa
Press
MSL
hPa
Rain
since 9 am
mm
Dir
 
Spd
km/h
Gust
km/h
Spd
kts
Gust
kts
20/11:30pm 8.8 5.7 5.7 81 1.4 WNW 11 15 6 8 1028.7 - 0.0
20/11:00pm 9.3 6.3 6.0 80 1.5 WNW 11 17 6 9 1028.6 - 0.0
20/10:30pm 9.6 7.0 6.3 80 1.5 WNW 9 15 5 8 1028.8 - 0.0
20/10:00pm 10.3 7.8 6.6 78 1.7 WNW 9 13 5 7 1028.8 - 0.0
20/09:30pm 10.4 7.9 6.7 78 1.7 WNW 9 11 5 6 1028.7 - 0.0

Other Formats:

Comma delimited format used in spreadsheet applications
http://www.bom.gov.au/fwo/IDV60801/IDV60801.94935.axf

JavaScript Object Notation format (JSON) in row-major order
http://www.bom.gov.au/fwo/IDV60801/IDV60801.94935.json